createdAt,value
2022-09-17T00:01:33.258Z,17.06
2022-09-17T00:04:04.753Z,17.04
2022-09-17T00:06:35.227Z,17.08
2022-09-17T00:09:03.722Z,17.07
2022-09-17T00:11:33.819Z,16.93
2022-09-17T00:14:03.996Z,16.89
2022-09-17T00:16:34.622Z,16.97
2022-09-17T00:19:05.670Z,16.86
2022-09-17T00:21:33.964Z,16.51
2022-09-17T00:24:04.774Z,16.78
2022-09-17T00:26:33.915Z,16.89
2022-09-17T00:29:02.458Z,16.81
2022-09-17T00:31:31.411Z,16.95
2022-09-17T00:34:00.768Z,16.95
2022-09-17T00:36:30.572Z,17.03
2022-09-17T00:39:00.460Z,17.03
2022-09-17T00:41:30.544Z,16.96
2022-09-17T00:44:00.866Z,17.02
2022-09-17T00:46:34.504Z,17.02
2022-09-17T00:49:05.600Z,16.98
2022-09-17T00:51:38.352Z,17.06
2022-09-17T00:54:08.795Z,17.00
2022-09-17T00:56:39.646Z,17.00
2022-09-17T00:59:09.139Z,16.96
2022-09-17T01:01:39.043Z,16.97
2022-09-17T01:04:07.236Z,16.89
2022-09-17T01:06:43.000Z,16.82
2022-09-17T01:09:23.645Z,16.81
2022-09-17T01:12:11.090Z,16.87
2022-09-17T01:14:54.234Z,16.88
2022-09-17T01:17:32.315Z,16.79
2022-09-17T01:20:29.415Z,16.82
2022-09-17T01:23:26.915Z,16.63
2022-09-17T01:26:12.427Z,16.58
2022-09-17T01:28:46.016Z,16.58
2022-09-17T01:31:34.513Z,16.64
2022-09-17T01:34:13.164Z,16.63
2022-09-17T01:36:51.708Z,16.72
2022-09-17T01:39:34.735Z,16.76
2022-09-17T01:42:10.746Z,16.81
2022-09-17T01:44:45.998Z,16.77
2022-09-17T01:47:21.236Z,16.86
2022-09-17T01:49:52.725Z,16.92
2022-09-17T01:52:21.853Z,16.95
2022-09-17T01:54:56.117Z,16.93
2022-09-17T01:57:29.391Z,16.78
2022-09-17T02:00:03.200Z,16.76
2022-09-17T02:02:36.769Z,16.83
2022-09-17T02:05:09.863Z,16.86
2022-09-17T02:07:42.971Z,16.81
2022-09-17T02:10:15.406Z,16.71
2022-09-17T02:12:50.137Z,16.83
2022-09-17T02:15:23.187Z,16.84
2022-09-17T02:17:57.148Z,16.86
2022-09-17T02:20:31.137Z,16.81
2022-09-17T02:23:03.938Z,16.60
2022-09-17T02:25:37.747Z,16.46
2022-09-17T02:28:12.120Z,16.58
2022-09-17T02:30:40.315Z,16.51
2022-09-17T02:33:13.717Z,16.33
2022-09-17T02:35:43.548Z,16.36
2022-09-17T02:38:11.560Z,16.43
2022-09-17T02:40:47.329Z,16.39
2022-09-17T02:43:26.439Z,16.39
2022-09-17T02:46:07.474Z,16.44
2022-09-17T02:49:01.681Z,16.49
2022-09-17T02:51:37.407Z,16.45
2022-09-17T02:54:14.392Z,16.40
2022-09-17T02:56:48.090Z,16.38
2022-09-17T02:59:24.931Z,16.35
2022-09-17T03:02:00.789Z,16.41
2022-09-17T03:04:32.144Z,16.49
2022-09-17T03:07:01.295Z,16.59
2022-09-17T03:09:29.414Z,16.69
2022-09-17T03:11:57.361Z,16.73
2022-09-17T03:14:25.298Z,16.78
2022-09-17T03:16:53.301Z,16.73
2022-09-17T03:19:21.335Z,16.69
2022-09-17T03:21:50.883Z,16.62
2022-09-17T03:24:18.771Z,16.55
2022-09-17T03:26:49.290Z,16.61
2022-09-17T03:29:17.544Z,16.69
2022-09-17T03:31:45.583Z,16.66
2022-09-17T03:34:13.595Z,16.68
2022-09-17T03:36:41.503Z,16.70
2022-09-17T03:39:10.996Z,16.55
2022-09-17T03:41:39.585Z,16.34
2022-09-17T03:44:07.572Z,16.32
2022-09-17T03:46:35.495Z,16.21
2022-09-17T03:49:03.655Z,16.36
2022-09-17T03:51:32.098Z,16.38
2022-09-17T03:54:00.065Z,16.22
2022-09-17T03:56:29.497Z,16.45
2022-09-17T03:59:00.008Z,16.45
2022-09-17T04:01:29.104Z,16.49
2022-09-17T04:03:57.225Z,16.60
2022-09-17T04:06:25.336Z,16.70
2022-09-17T04:08:53.470Z,16.76
2022-09-17T04:11:21.955Z,16.81
2022-09-17T04:13:51.487Z,16.77
2022-09-17T04:16:19.515Z,16.80
2022-09-17T04:18:47.526Z,16.74
2022-09-17T04:21:15.422Z,16.78
2022-09-17T04:23:43.369Z,16.76
2022-09-17T04:26:11.326Z,16.70
2022-09-17T04:28:39.359Z,16.72
2022-09-17T04:31:09.070Z,16.72
2022-09-17T04:33:37.581Z,16.76
2022-09-17T04:36:05.802Z,16.79
2022-09-17T04:38:33.855Z,16.83
2022-09-17T04:41:01.988Z,16.82
2022-09-17T04:43:29.900Z,16.82
2022-09-17T04:45:57.835Z,16.77
2022-09-17T04:48:27.289Z,16.69
2022-09-17T04:50:55.180Z,16.67
2022-09-17T04:53:23.162Z,16.60
2022-09-17T04:55:51.315Z,16.77
2022-09-17T04:58:19.275Z,16.82
2022-09-17T05:00:47.318Z,16.98
2022-09-17T05:03:15.684Z,17.17
2022-09-17T05:05:45.025Z,17.20
2022-09-17T05:08:13.238Z,17.14
2022-09-17T05:10:41.146Z,17.13
2022-09-17T05:13:09.208Z,17.11
2022-09-17T05:15:37.246Z,17.13
2022-09-17T05:18:05.324Z,17.17
2022-09-17T05:20:34.709Z,17.18
2022-09-17T05:23:04.413Z,17.26
2022-09-17T05:25:32.491Z,17.35
2022-09-17T05:28:04.762Z,17.30
2022-09-17T05:30:32.980Z,17.42
2022-09-17T05:33:03.129Z,17.35
2022-09-17T05:35:32.087Z,17.57
2022-09-17T05:38:01.627Z,17.63
2022-09-17T05:40:32.831Z,17.61
2022-09-17T05:43:01.584Z,17.67
2022-09-17T05:45:29.749Z,17.64
2022-09-17T05:47:58.426Z,17.54
2022-09-17T05:50:30.422Z,17.44
2022-09-17T05:52:58.529Z,17.48
2022-09-17T05:55:27.830Z,17.56
2022-09-17T05:57:57.307Z,17.59
2022-09-17T06:00:25.274Z,17.54
2022-09-17T06:02:56.435Z,17.77
2022-09-17T06:05:24.464Z,17.86
2022-09-17T06:07:52.877Z,17.88
2022-09-17T06:10:20.913Z,17.94
2022-09-17T06:12:48.951Z,17.84
2022-09-17T06:15:18.510Z,17.86
2022-09-17T06:17:46.720Z,17.72
2022-09-17T06:20:16.357Z,17.59
2022-09-17T06:22:44.564Z,17.43
2022-09-17T06:25:13.162Z,17.45
2022-09-17T06:27:41.313Z,17.45
2022-09-17T06:30:09.728Z,17.40
2022-09-17T06:32:39.124Z,17.57
2022-09-17T06:35:09.327Z,17.48
2022-09-17T06:37:40.352Z,17.46
2022-09-17T06:40:10.091Z,17.48
2022-09-17T06:42:38.150Z,17.53
2022-09-17T06:45:11.073Z,17.51
2022-09-17T06:47:42.608Z,17.67
2022-09-17T06:50:11.152Z,17.77
2022-09-17T06:52:39.405Z,18.02
2022-09-17T06:55:07.809Z,18.08
2022-09-17T06:57:35.832Z,18.17
2022-09-17T07:00:05.037Z,18.17
2022-09-17T07:02:33.042Z,18.17
2022-09-17T07:05:02.707Z,18.19
2022-09-17T07:07:31.053Z,17.78
2022-09-17T07:09:58.967Z,17.87
2022-09-17T07:12:26.992Z,18.07
2022-09-17T07:14:54.966Z,18.20
2022-09-17T07:17:23.329Z,18.38
2022-09-17T07:19:51.314Z,18.45
2022-09-17T07:22:20.583Z,18.66
2022-09-17T07:24:48.580Z,18.84
2022-09-17T07:27:16.596Z,19.03
2022-09-17T07:29:44.548Z,19.12
2022-09-17T07:32:12.478Z,19.17
2022-09-17T07:34:40.509Z,19.31
2022-09-17T07:37:08.484Z,19.46
2022-09-17T07:39:37.826Z,19.29
2022-09-17T07:42:06.172Z,19.32
2022-09-17T07:44:34.068Z,19.28
2022-09-17T07:47:02.176Z,19.33
2022-09-17T07:49:30.237Z,19.50
2022-09-17T07:51:59.969Z,19.67
2022-09-17T07:54:27.858Z,19.78
2022-09-17T07:56:57.112Z,19.82
2022-09-17T07:59:25.103Z,20.06
2022-09-17T08:01:53.264Z,20.09
2022-09-17T08:04:21.612Z,20.27
2022-09-17T08:06:49.867Z,20.30
2022-09-17T08:09:18.709Z,20.46
2022-09-17T08:12:02.406Z,20.58
2022-09-17T08:14:34.465Z,20.77
2022-09-17T08:17:02.429Z,20.80
2022-09-17T08:19:32.906Z,21.07
2022-09-17T08:22:01.052Z,21.13
2022-09-17T08:24:29.214Z,21.20
2022-09-17T08:26:57.175Z,21.47
2022-09-17T08:29:25.067Z,21.51
2022-09-17T08:31:54.376Z,21.51
2022-09-17T08:34:22.347Z,21.73
2022-09-17T08:36:50.310Z,21.83
2022-09-17T08:39:18.258Z,21.82
2022-09-17T08:41:51.975Z,21.94
2022-09-17T08:44:26.476Z,22.09
2022-09-17T08:47:01.921Z,22.11
2022-09-17T08:49:36.250Z,21.96
2022-09-17T08:52:31.870Z,22.05
2022-09-17T08:55:08.294Z,22.01
2022-09-17T08:57:42.280Z,22.14
2022-09-17T09:00:14.906Z,22.09
2022-09-17T09:03:01.126Z,22.04
2022-09-17T09:05:33.322Z,21.75
2022-09-17T09:08:07.596Z,21.49
2022-09-17T09:10:47.551Z,21.36
2022-09-17T09:13:18.827Z,21.19
2022-09-17T09:15:52.630Z,21.16
2022-09-17T09:18:24.080Z,21.00
2022-09-17T09:20:55.735Z,20.92
2022-09-17T09:23:33.358Z,20.89
2022-09-17T09:26:13.330Z,20.76
2022-09-17T09:28:54.062Z,20.71
2022-09-17T09:31:45.821Z,20.57
2022-09-17T09:34:16.409Z,20.47
2022-09-17T09:36:44.496Z,20.44
2022-09-17T09:39:19.138Z,20.41
2022-09-17T09:41:50.263Z,20.15
2022-09-17T09:44:18.945Z,20.22
2022-09-17T09:47:13.664Z,20.15
2022-09-17T09:49:58.292Z,19.96
2022-09-17T09:52:38.587Z,19.97
2022-09-17T09:55:26.933Z,19.79
2022-09-17T09:58:00.362Z,19.68
2022-09-17T10:00:31.173Z,19.57
2022-09-17T10:03:05.894Z,19.52
2022-09-17T10:05:35.868Z,19.52
2022-09-17T10:08:12.811Z,19.47
2022-09-17T10:10:55.979Z,19.18
2022-09-17T10:13:24.194Z,19.11
2022-09-17T10:15:52.259Z,19.11
2022-09-17T10:18:22.310Z,19.14
2022-09-17T10:20:56.491Z,19.05
2022-09-17T10:23:27.256Z,18.97
2022-09-17T10:25:56.713Z,18.95
2022-09-17T10:28:32.632Z,18.82
2022-09-17T10:31:08.497Z,18.75
2022-09-17T10:33:40.390Z,18.87
2022-09-17T10:36:14.792Z,18.83
2022-09-17T10:38:44.259Z,18.85
2022-09-17T10:41:18.436Z,18.66
2022-09-17T10:43:46.955Z,18.82
2022-09-17T10:46:26.764Z,18.77
2022-09-17T10:49:10.404Z,18.99
2022-09-17T10:51:40.889Z,19.03
2022-09-17T10:54:35.892Z,19.11
2022-09-17T10:57:08.218Z,19.17
2022-09-17T10:59:54.608Z,19.13
2022-09-17T11:02:57.309Z,19.02
2022-09-17T11:05:41.328Z,18.99
2022-09-17T11:08:18.434Z,18.92
2022-09-17T11:10:55.086Z,18.97
2022-09-17T11:13:36.954Z,18.98
2022-09-17T11:16:17.367Z,19.16
2022-09-17T11:18:51.315Z,19.35
2022-09-17T11:21:37.365Z,19.50
2022-09-17T11:24:32.072Z,19.69
2022-09-17T11:27:15.237Z,19.69
2022-09-17T11:30:03.612Z,19.76
2022-09-17T11:32:48.534Z,19.72
2022-09-17T11:35:20.867Z,19.68
2022-09-17T11:37:57.803Z,19.50
2022-09-17T11:40:38.136Z,19.51
2022-09-17T11:43:15.955Z,19.38
2022-09-17T11:45:55.803Z,19.29
2022-09-17T11:48:30.669Z,19.28
2022-09-17T11:51:02.753Z,19.32
2022-09-17T11:53:35.718Z,19.33
2022-09-17T11:56:16.122Z,19.38
2022-09-17T11:58:47.506Z,19.46
2022-09-17T12:01:22.536Z,19.53
2022-09-17T12:03:55.770Z,19.55
2022-09-17T12:06:30.372Z,19.59
2022-09-17T12:09:02.931Z,19.59
2022-09-17T12:11:37.318Z,19.60
2022-09-17T12:14:10.975Z,19.54
2022-09-17T12:16:43.603Z,19.51
2022-09-17T12:19:18.612Z,19.36
2022-09-17T12:21:50.116Z,19.73
2022-09-17T12:24:23.573Z,19.84
2022-09-17T12:27:06.093Z,19.92
2022-09-17T12:29:49.179Z,19.87
2022-09-17T12:32:52.347Z,19.86
2022-09-17T12:36:02.360Z,19.75
2022-09-17T12:38:49.311Z,19.71
2022-09-17T12:41:21.831Z,19.76
2022-09-17T12:44:18.401Z,19.54
2022-09-17T12:47:05.558Z,19.66
2022-09-17T12:49:52.256Z,19.64
2022-09-17T12:52:32.108Z,19.51
2022-09-17T12:55:23.460Z,19.57
2022-09-17T12:58:01.829Z,19.54
2022-09-17T13:00:38.586Z,19.47
2022-09-17T13:03:19.367Z,19.38
2022-09-17T13:06:15.355Z,19.39
2022-09-17T13:09:23.661Z,19.37
2022-09-17T13:12:07.303Z,19.39
2022-09-17T13:14:55.962Z,19.40
2022-09-17T13:17:32.927Z,19.43
2022-09-17T13:20:07.386Z,19.49
2022-09-17T13:22:46.013Z,19.43
2022-09-17T13:25:16.932Z,19.50
2022-09-17T13:27:46.254Z,19.46
2022-09-17T13:30:17.111Z,19.46
2022-09-17T13:32:55.501Z,19.35
2022-09-17T13:35:47.864Z,19.40
2022-09-17T13:38:19.081Z,19.33
2022-09-17T13:40:49.698Z,19.41
2022-09-17T13:43:23.859Z,19.32
2022-09-17T13:46:12.430Z,19.20
2022-09-17T13:48:51.061Z,19.20
2022-09-17T13:51:53.971Z,19.14
2022-09-17T13:54:24.447Z,19.03
2022-09-17T13:57:10.917Z,18.95
2022-09-17T13:59:39.566Z,18.96
2022-09-17T14:02:36.529Z,18.97
2022-09-17T14:05:39.188Z,18.94
2022-09-17T14:08:29.338Z,18.95
2022-09-17T14:11:03.213Z,18.94
2022-09-17T14:13:55.935Z,18.89
2022-09-17T14:16:48.177Z,18.83
2022-09-17T14:19:25.392Z,18.88
2022-09-17T14:22:04.180Z,18.90
2022-09-17T14:24:38.768Z,18.91
2022-09-17T14:27:16.493Z,18.86
2022-09-17T14:30:06.189Z,18.74
2022-09-17T14:32:42.224Z,18.59
2022-09-17T14:35:24.129Z,18.39
2022-09-17T14:37:57.714Z,18.29
2022-09-17T14:40:26.492Z,18.37
2022-09-17T14:42:56.905Z,18.31
2022-09-17T14:45:29.385Z,18.24
2022-09-17T14:48:20.115Z,18.17
2022-09-17T14:50:48.245Z,18.13
2022-09-17T14:53:19.951Z,18.13
2022-09-17T14:55:49.997Z,18.21
2022-09-17T14:58:30.957Z,18.14
2022-09-17T15:00:59.294Z,18.12
2022-09-17T15:03:27.243Z,18.14
2022-09-17T15:05:55.241Z,18.18
2022-09-17T15:08:28.006Z,18.11
2022-09-17T15:10:58.299Z,18.12
2022-09-17T15:13:29.924Z,18.04
2022-09-17T15:16:02.270Z,17.90
2022-09-17T15:18:38.330Z,17.87
2022-09-17T15:21:16.341Z,17.92
2022-09-17T15:23:47.725Z,17.87
2022-09-17T15:26:22.502Z,17.94
2022-09-17T15:28:50.999Z,17.92
2022-09-17T15:31:20.762Z,17.95
2022-09-17T15:33:49.329Z,18.00
2022-09-17T15:36:22.385Z,17.97
2022-09-17T15:38:52.674Z,18.00
2022-09-17T15:41:30.484Z,18.06
2022-09-17T15:44:29.749Z,18.13
2022-09-17T15:47:31.609Z,18.08
2022-09-17T15:50:13.536Z,18.22
2022-09-17T15:52:41.841Z,18.05
2022-09-17T15:55:30.569Z,18.20
2022-09-17T15:57:59.738Z,18.27
2022-09-17T16:00:28.119Z,18.10
2022-09-17T16:02:56.360Z,18.15
2022-09-17T16:05:55.649Z,18.14
2022-09-17T16:08:25.937Z,17.97
2022-09-17T16:10:55.291Z,17.81
2022-09-17T16:13:28.483Z,17.92
2022-09-17T16:15:57.060Z,18.02
2022-09-17T16:18:25.080Z,17.83
2022-09-17T16:20:53.069Z,17.72
2022-09-17T16:23:21.079Z,17.91
2022-09-17T16:25:49.263Z,17.84
2022-09-17T16:28:20.905Z,17.62
2022-09-17T16:30:50.659Z,17.84
2022-09-17T16:33:19.422Z,17.83
2022-09-17T16:35:47.457Z,17.73
2022-09-17T16:38:15.577Z,17.69
2022-09-17T16:40:45.055Z,17.84
2022-09-17T16:43:13.284Z,17.82
2022-09-17T16:45:42.917Z,17.74
2022-09-17T16:48:11.180Z,17.83
2022-09-17T16:50:41.189Z,17.93
2022-09-17T16:53:09.142Z,17.81
2022-09-17T16:55:37.667Z,17.85
2022-09-17T16:58:05.645Z,17.84
2022-09-17T17:00:33.705Z,17.76
2022-09-17T17:03:03.162Z,17.79
2022-09-17T17:05:32.515Z,17.70
2022-09-17T17:08:05.910Z,17.69
2022-09-17T17:10:34.991Z,17.60
2022-09-17T17:13:03.216Z,17.76
2022-09-17T17:15:31.291Z,17.80
2022-09-17T17:17:59.385Z,17.67
2022-09-17T17:20:29.536Z,17.71
2022-09-17T17:22:57.456Z,17.80
2022-09-17T17:25:27.127Z,17.82
2022-09-17T17:27:55.133Z,17.86
2022-09-17T17:30:23.149Z,17.82
2022-09-17T17:32:51.991Z,17.71
2022-09-17T17:35:20.489Z,17.78
2022-09-17T17:37:50.261Z,17.72
2022-09-17T17:40:18.334Z,17.74
2022-09-17T17:42:47.606Z,17.71
2022-09-17T17:45:15.946Z,17.66
2022-09-17T17:47:43.988Z,17.79
2022-09-17T17:50:11.967Z,17.72
2022-09-17T17:52:43.418Z,17.52
2022-09-17T17:55:12.835Z,17.76
2022-09-17T17:57:41.207Z,17.71
2022-09-17T18:00:11.027Z,17.73
2022-09-17T18:02:39.087Z,17.66
2022-09-17T18:05:07.703Z,17.76
2022-09-17T18:07:35.737Z,17.80
2022-09-17T18:10:03.798Z,17.79
2022-09-17T18:12:33.382Z,17.66
2022-09-17T18:15:01.379Z,17.55
2022-09-17T18:17:31.484Z,17.57
2022-09-17T18:19:59.449Z,17.46
2022-09-17T18:22:27.404Z,17.43
2022-09-17T18:24:55.392Z,17.34
2022-09-17T18:27:23.307Z,17.30
2022-09-17T18:29:52.730Z,17.43
2022-09-17T18:32:20.853Z,17.42
2022-09-17T18:34:51.172Z,17.49
2022-09-17T18:37:19.686Z,17.49
2022-09-17T18:40:04.701Z,17.44
2022-09-17T18:42:33.083Z,17.47
2022-09-17T18:45:02.491Z,17.44
2022-09-17T18:47:30.589Z,17.47
2022-09-17T18:49:58.541Z,17.41
2022-09-17T18:52:26.496Z,17.35
2022-09-17T18:54:54.451Z,17.30
2022-09-17T18:57:23.177Z,17.22
2022-09-17T18:59:51.153Z,17.25
2022-09-17T19:02:20.533Z,17.14
2022-09-17T19:04:48.705Z,17.08
2022-09-17T19:07:16.634Z,17.05
2022-09-17T19:09:45.029Z,17.18
2022-09-17T19:12:12.945Z,17.10
2022-09-17T19:14:41.188Z,17.06
2022-09-17T19:17:09.338Z,16.97
2022-09-17T19:19:38.811Z,16.98
2022-09-17T19:22:08.149Z,16.89
2022-09-17T19:24:36.311Z,16.65
2022-09-17T19:27:04.305Z,16.79
2022-09-17T19:29:36.197Z,16.69
2022-09-17T19:32:04.177Z,16.48
2022-09-17T19:34:32.132Z,16.55
2022-09-17T19:37:01.572Z,16.60
2022-09-17T19:39:29.621Z,16.50
2022-09-17T19:41:57.625Z,16.61
2022-09-17T19:44:25.581Z,16.60
2022-09-17T19:46:53.753Z,16.76
2022-09-17T19:49:21.933Z,16.74
2022-09-17T19:51:51.603Z,16.75
2022-09-17T19:54:20.934Z,16.76
2022-09-17T19:56:49.104Z,16.74
2022-09-17T19:59:17.108Z,16.77
2022-09-17T20:01:49.339Z,16.70
2022-09-17T20:04:18.129Z,16.67
2022-09-17T20:06:46.158Z,16.63
2022-09-17T20:09:17.237Z,16.57
2022-09-17T20:11:46.935Z,16.51
2022-09-17T20:14:15.041Z,16.53
2022-09-17T20:16:44.657Z,16.39
2022-09-17T20:19:16.613Z,16.24
2022-09-17T20:21:44.673Z,16.38
2022-09-17T20:24:12.789Z,16.20
2022-09-17T20:26:40.755Z,16.06
2022-09-17T20:29:10.773Z,16.05
2022-09-17T20:31:38.991Z,16.18
2022-09-17T20:34:07.125Z,16.14
2022-09-17T20:36:36.442Z,16.21
2022-09-17T20:39:12.261Z,16.14
2022-09-17T20:41:42.297Z,16.27
2022-09-17T20:44:11.811Z,16.20
2022-09-17T20:46:39.817Z,16.01
2022-09-17T20:49:07.843Z,16.00
2022-09-17T20:51:35.792Z,16.08
2022-09-17T20:54:04.496Z,15.99
2022-09-17T20:56:35.017Z,15.94
2022-09-17T20:59:13.228Z,15.87
2022-09-17T21:01:45.025Z,15.85
2022-09-17T21:04:15.473Z,15.81
2022-09-17T21:06:45.269Z,15.89
2022-09-17T21:09:16.768Z,15.79
2022-09-17T21:11:45.777Z,15.88
2022-09-17T21:14:15.703Z,16.05
2022-09-17T21:16:45.813Z,15.97
2022-09-17T21:19:16.208Z,16.02
2022-09-17T21:21:44.520Z,16.04
2022-09-17T21:24:12.577Z,16.02
2022-09-17T21:26:40.616Z,16.04
2022-09-17T21:29:08.701Z,16.09
2022-09-17T21:31:38.606Z,16.01
2022-09-17T21:34:11.004Z,16.18
2022-09-17T21:36:40.887Z,16.23
2022-09-17T21:39:12.956Z,16.16
2022-09-17T21:41:42.828Z,16.31
2022-09-17T21:44:11.438Z,16.36
2022-09-17T21:46:40.305Z,16.40
2022-09-17T21:49:10.250Z,16.34
2022-09-17T21:51:40.041Z,16.33
2022-09-17T21:54:10.101Z,16.39
2022-09-17T21:56:38.703Z,16.34
2022-09-17T21:59:08.764Z,16.35
2022-09-17T22:01:39.851Z,16.36
2022-09-17T22:04:10.981Z,16.41
2022-09-17T22:06:39.547Z,16.42
2022-09-17T22:09:08.636Z,16.57
2022-09-17T22:11:38.732Z,16.48
2022-09-17T22:14:09.230Z,16.55
2022-09-17T22:16:39.678Z,16.55
2022-09-17T22:19:10.445Z,16.50
2022-09-17T22:21:40.433Z,16.43
2022-09-17T22:24:09.319Z,16.46
2022-09-17T22:26:41.481Z,16.34
2022-09-17T22:29:13.105Z,16.15
2022-09-17T22:31:41.074Z,16.31
2022-09-17T22:34:11.516Z,16.32
2022-09-17T22:36:39.878Z,16.40
2022-09-17T22:39:08.205Z,16.38
2022-09-17T22:41:38.206Z,16.40
2022-09-17T22:44:08.231Z,16.40
2022-09-17T22:46:39.359Z,16.43
2022-09-17T22:49:08.144Z,16.41
2022-09-17T22:51:37.964Z,16.37
2022-09-17T22:54:06.944Z,16.40
2022-09-17T22:56:36.321Z,16.37
2022-09-17T22:59:05.172Z,16.44
2022-09-17T23:01:36.268Z,16.33
2022-09-17T23:04:06.257Z,16.43
2022-09-17T23:06:38.561Z,16.40
2022-09-17T23:09:07.669Z,16.22
2022-09-17T23:11:37.998Z,16.36
2022-09-17T23:14:08.761Z,16.44
2022-09-17T23:16:39.748Z,16.43
2022-09-17T23:19:07.814Z,16.51
2022-09-17T23:21:38.341Z,16.46
2022-09-17T23:24:06.724Z,16.07
2022-09-17T23:26:34.885Z,16.21
2022-09-17T23:29:05.305Z,16.20
2022-09-17T23:31:35.782Z,16.23
2022-09-17T23:34:06.233Z,16.22
2022-09-17T23:36:36.638Z,16.26
2022-09-17T23:39:08.151Z,16.22
2022-09-17T23:41:38.274Z,16.34
2022-09-17T23:44:13.815Z,16.39
2022-09-17T23:46:43.303Z,16.47
2022-09-17T23:49:12.736Z,16.53
2022-09-17T23:51:40.854Z,16.45
2022-09-17T23:54:10.157Z,16.54
2022-09-17T23:56:38.542Z,16.25
2022-09-17T23:59:07.423Z,16.40
